createdAt,value
2023-01-23T00:00:37.558Z,30.60
2023-01-23T00:03:39.381Z,30.52
2023-01-23T00:06:41.105Z,28.95
2023-01-23T00:09:42.954Z,28.33
2023-01-23T00:12:46.064Z,31.17
2023-01-23T00:15:48.783Z,32.58
2023-01-23T00:18:51.796Z,26.70
2023-01-23T00:21:53.428Z,24.17
2023-01-23T00:24:55.177Z,27.20
2023-01-23T00:27:57.003Z,24.90
2023-01-23T00:31:15.502Z,25.45
2023-01-23T00:34:17.398Z,26.25
2023-01-23T00:37:19.108Z,27.55
2023-01-23T00:40:20.936Z,26.50
2023-01-23T00:43:24.154Z,26.05
2023-01-23T00:46:26.108Z,26.33
2023-01-23T00:49:28.085Z,27.50
2023-01-23T00:52:30.536Z,30.38
2023-01-23T00:55:32.192Z,26.27
2023-01-23T00:58:36.371Z,26.67
2023-01-23T01:01:38.170Z,25.65
2023-01-23T01:04:40.071Z,24.77
2023-01-23T01:07:42.005Z,27.48
2023-01-23T01:10:44.017Z,27.13
2023-01-23T01:13:46.032Z,33.05
2023-01-23T01:16:48.137Z,35.85
2023-01-23T01:19:49.836Z,40.75
2023-01-23T01:22:52.272Z,32.58
2023-01-23T01:25:58.929Z,33.65
2023-01-23T01:29:00.577Z,34.83
2023-01-23T01:32:02.311Z,36.95
2023-01-23T01:35:05.986Z,31.42
2023-01-23T01:38:08.874Z,32.72
2023-01-23T01:41:12.219Z,28.52
2023-01-23T01:44:24.393Z,28.85
2023-01-23T01:47:26.776Z,25.23
2023-01-23T01:50:28.742Z,24.00
2023-01-23T01:53:31.511Z,29.90
2023-01-23T01:56:39.812Z,28.83
2023-01-23T02:00:18.320Z,25.58
2023-01-23T02:03:20.395Z,22.15
2023-01-23T02:06:22.737Z,27.30
2023-01-23T02:09:26.932Z,27.25
2023-01-23T02:12:29.064Z,29.60
2023-01-23T02:15:30.746Z,26.77
2023-01-23T02:18:35.754Z,30.30
2023-01-23T02:21:39.829Z,29.05
2023-01-23T02:24:55.141Z,33.45
2023-01-23T02:27:57.150Z,29.95
2023-01-23T02:30:58.827Z,28.35
2023-01-23T02:34:01.203Z,35.33
2023-01-23T02:37:05.253Z,40.28
2023-01-23T02:40:07.598Z,27.45
2023-01-23T02:43:14.763Z,33.15
2023-01-23T02:46:24.138Z,32.60
2023-01-23T02:49:26.602Z,34.38
2023-01-23T02:52:29.188Z,33.38
2023-01-23T02:55:31.872Z,34.97
2023-01-23T02:58:52.963Z,37.58
2023-01-23T03:01:55.323Z,39.42
2023-01-23T03:04:57.041Z,39.95
2023-01-23T03:07:58.589Z,34.65
2023-01-23T03:11:01.718Z,36.50
2023-01-23T03:14:04.314Z,51.03
2023-01-23T03:17:05.979Z,35.00
2023-01-23T03:20:11.379Z,39.13
2023-01-23T03:23:14.740Z,32.22
2023-01-23T03:26:18.009Z,33.15
2023-01-23T03:29:43.428Z,38.08
2023-01-23T03:32:46.848Z,40.13
2023-01-23T03:35:49.492Z,35.05
2023-01-23T03:39:09.937Z,35.72
2023-01-23T03:42:11.741Z,37.47
2023-01-23T03:45:13.557Z,34.47
2023-01-23T03:48:16.530Z,41.38
2023-01-23T03:51:19.728Z,32.72
2023-01-23T03:54:21.693Z,52.90
2023-01-23T03:57:24.709Z,38.42
2023-01-23T04:00:45.111Z,35.10
2023-01-23T04:03:48.111Z,30.85
2023-01-23T04:06:49.916Z,33.58
2023-01-23T04:09:52.441Z,30.83
2023-01-23T04:12:54.261Z,32.85
2023-01-23T04:15:55.942Z,34.13
2023-01-23T04:18:57.770Z,35.40
2023-01-23T04:22:01.379Z,29.70
2023-01-23T04:25:07.817Z,30.98
2023-01-23T04:28:09.550Z,25.42
2023-01-23T04:31:11.634Z,37.30
2023-01-23T04:34:13.412Z,34.25
2023-01-23T04:37:17.155Z,29.67
2023-01-23T04:40:20.357Z,28.27
2023-01-23T04:43:32.382Z,35.75
2023-01-23T04:46:34.801Z,31.63
2023-01-23T04:49:43.485Z,28.52
2023-01-23T04:52:45.195Z,30.52
2023-01-23T04:55:49.591Z,28.33
2023-01-23T04:58:53.401Z,31.00
2023-01-23T05:01:57.142Z,32.65
2023-01-23T05:04:59.995Z,32.35
2023-01-23T05:08:02.146Z,32.15
2023-01-23T05:11:04.928Z,28.23
2023-01-23T05:14:07.498Z,36.13
2023-01-23T05:17:10.701Z,33.28
2023-01-23T05:20:21.247Z,36.17
2023-01-23T05:23:23.530Z,29.92
2023-01-23T05:26:27.271Z,33.88
2023-01-23T05:29:30.575Z,34.15
2023-01-23T05:32:38.079Z,29.98
2023-01-23T05:35:44.743Z,26.95
2023-01-23T05:38:46.556Z,28.80
2023-01-23T05:41:49.172Z,25.38
2023-01-23T05:45:17.819Z,30.80
2023-01-23T05:48:19.627Z,34.17
2023-01-23T05:51:23.259Z,30.20
2023-01-23T05:54:26.194Z,29.35
2023-01-23T05:57:28.596Z,24.08
2023-01-23T06:00:49.155Z,31.88
2023-01-23T06:04:16.216Z,27.92
2023-01-23T06:07:50.767Z,29.85
2023-01-23T06:10:52.734Z,26.88
2023-01-23T06:13:54.935Z,22.23
2023-01-23T06:16:57.563Z,26.65
2023-01-23T06:19:59.524Z,22.73
2023-01-23T06:23:01.592Z,27.38
2023-01-23T06:26:04.039Z,26.42
2023-01-23T06:29:07.330Z,24.77
2023-01-23T06:32:09.180Z,23.80
2023-01-23T06:35:12.735Z,23.83
2023-01-23T06:38:17.036Z,24.20
2023-01-23T06:41:21.945Z,22.50
2023-01-23T06:44:26.858Z,22.52
2023-01-23T06:47:29.883Z,25.60
2023-01-23T06:50:35.365Z,25.75
2023-01-23T06:53:37.282Z,29.15
2023-01-23T06:56:39.835Z,28.85
2023-01-23T06:59:43.836Z,22.33
2023-01-23T07:02:48.671Z,30.90
2023-01-23T07:05:50.651Z,27.02
2023-01-23T07:08:52.769Z,30.48
2023-01-23T07:11:55.024Z,32.00
2023-01-23T07:14:57.101Z,34.63
2023-01-23T07:18:12.553Z,31.77
2023-01-23T07:21:14.438Z,32.70
2023-01-23T07:24:16.505Z,31.55
2023-01-23T07:27:18.432Z,34.92
2023-01-23T07:30:20.657Z,29.63
2023-01-23T07:33:22.824Z,33.45
2023-01-23T07:36:24.594Z,28.13
2023-01-23T07:39:26.472Z,30.17
2023-01-23T07:42:28.798Z,28.63
2023-01-23T07:45:30.894Z,30.63
2023-01-23T07:48:32.594Z,29.35
2023-01-23T07:51:35.303Z,29.67
2023-01-23T07:54:37.210Z,31.30
2023-01-23T07:57:38.933Z,32.33
2023-01-23T08:00:41.919Z,30.88
2023-01-23T08:03:43.709Z,26.20
2023-01-23T08:06:45.568Z,27.27
2023-01-23T08:09:47.394Z,27.95
2023-01-23T08:12:49.217Z,33.92
2023-01-23T08:15:53.383Z,32.42
2023-01-23T08:18:55.387Z,35.10
2023-01-23T08:21:57.151Z,29.35
2023-01-23T08:24:59.010Z,29.13
2023-01-23T08:28:01.801Z,35.05
2023-01-23T08:31:06.834Z,31.40
2023-01-23T08:34:08.753Z,28.27
2023-01-23T08:37:10.438Z,31.67
2023-01-23T08:40:12.587Z,30.45
2023-01-23T08:43:15.290Z,33.00
2023-01-23T08:46:17.497Z,31.60
2023-01-23T08:49:20.491Z,27.45
2023-01-23T08:52:22.542Z,33.97
2023-01-23T08:55:24.918Z,32.63
2023-01-23T08:58:26.752Z,27.90
2023-01-23T09:01:28.712Z,26.48
2023-01-23T09:04:30.735Z,33.28
2023-01-23T09:07:33.146Z,32.90
2023-01-23T09:10:36.911Z,30.40
2023-01-23T09:13:38.923Z,31.30
2023-01-23T09:16:41.483Z,30.23
2023-01-23T09:19:43.420Z,30.85
2023-01-23T09:22:45.305Z,28.80
2023-01-23T09:25:47.551Z,33.75
2023-01-23T09:28:49.403Z,30.13
2023-01-23T09:31:51.324Z,35.20
2023-01-23T09:34:54.886Z,30.85
2023-01-23T09:38:08.674Z,29.05
2023-01-23T09:41:23.549Z,31.95
2023-01-23T09:44:40.810Z,30.83
2023-01-23T09:47:53.907Z,33.22
2023-01-23T09:51:04.014Z,29.25
2023-01-23T09:54:18.436Z,26.77
2023-01-23T09:57:37.316Z,21.67
2023-01-23T10:00:39.247Z,26.77
2023-01-23T10:03:44.285Z,22.48
2023-01-23T10:07:20.731Z,28.35
2023-01-23T10:10:44.718Z,22.90
2023-01-23T10:13:52.816Z,24.10
2023-01-23T10:17:19.707Z,24.20
2023-01-23T10:20:30.423Z,24.38
2023-01-23T10:23:52.976Z,26.48
2023-01-23T10:27:15.719Z,28.70
2023-01-23T10:30:17.862Z,25.83
2023-01-23T10:33:19.898Z,27.35
2023-01-23T10:36:41.857Z,23.17
2023-01-23T10:40:03.932Z,24.20
2023-01-23T10:43:18.830Z,25.25
2023-01-23T10:46:48.353Z,29.65
2023-01-23T10:49:50.319Z,24.42
2023-01-23T10:52:52.164Z,24.42
2023-01-23T10:55:59.540Z,24.90
2023-01-23T10:59:02.955Z,21.15
2023-01-23T11:02:14.029Z,18.90
2023-01-23T11:05:51.078Z,21.50
2023-01-23T11:09:01.634Z,18.65
2023-01-23T11:12:05.644Z,19.75
2023-01-23T11:15:28.692Z,17.70
2023-01-23T11:18:42.612Z,20.15
2023-01-23T11:21:55.320Z,22.50
2023-01-23T11:24:57.395Z,17.73
2023-01-23T11:28:31.103Z,19.55
2023-01-23T11:31:33.205Z,18.95
2023-01-23T11:34:43.042Z,23.55
2023-01-23T11:37:44.880Z,19.67
2023-01-23T11:40:48.088Z,19.98
2023-01-23T11:43:49.822Z,19.73
2023-01-23T11:47:12.864Z,23.67
2023-01-23T11:50:14.697Z,19.40
2023-01-23T11:53:43.237Z,22.05
2023-01-23T11:57:10.369Z,20.42
2023-01-23T12:00:44.793Z,19.90
2023-01-23T12:04:20.625Z,25.55
2023-01-23T12:07:25.023Z,24.30
2023-01-23T12:10:29.839Z,24.52
2023-01-23T12:13:56.179Z,23.83
2023-01-23T12:17:16.285Z,26.85
2023-01-23T12:20:39.187Z,25.70
2023-01-23T12:24:13.589Z,21.17
2023-01-23T12:27:35.366Z,19.00
2023-01-23T12:31:34.177Z,24.67
2023-01-23T12:35:24.571Z,26.95
2023-01-23T12:38:32.216Z,21.85
2023-01-23T12:41:46.984Z,23.83
2023-01-23T12:45:06.728Z,28.13
2023-01-23T12:48:22.447Z,25.08
2023-01-23T12:51:45.795Z,24.10
2023-01-23T12:54:55.318Z,23.63
2023-01-23T12:58:07.045Z,25.30
2023-01-23T13:01:16.311Z,23.20
2023-01-23T13:04:40.272Z,24.92
2023-01-23T13:07:46.333Z,27.15
2023-01-23T13:11:19.807Z,24.90
2023-01-23T13:14:25.555Z,22.77
2023-01-23T13:17:37.929Z,21.50
2023-01-23T13:21:22.287Z,22.88
2023-01-23T13:24:46.458Z,24.75
2023-01-23T13:27:55.720Z,24.08
2023-01-23T13:31:04.947Z,19.40
2023-01-23T13:34:16.260Z,18.05
2023-01-23T13:37:51.534Z,21.90
2023-01-23T13:41:08.479Z,22.60
2023-01-23T13:44:18.047Z,19.52
2023-01-23T14:25:37.778Z,20.50
2023-01-23T14:28:39.696Z,19.38
2023-01-23T14:31:42.236Z,19.02
2023-01-23T14:34:44.240Z,19.13
2023-01-23T14:37:46.808Z,19.60
2023-01-23T14:40:51.033Z,20.08
2023-01-23T14:43:54.730Z,21.35
2023-01-23T14:47:00.012Z,19.50
2023-01-23T14:50:03.449Z,21.83
2023-01-23T14:53:12.337Z,21.45
2023-01-23T14:56:14.275Z,20.80
2023-01-23T14:59:32.606Z,18.15
2023-01-23T15:02:36.110Z,19.23
2023-01-23T15:05:39.814Z,22.42
2023-01-23T15:08:42.749Z,19.13
2023-01-23T15:11:45.948Z,18.98
2023-01-23T15:14:53.964Z,19.23
2023-01-23T15:17:59.854Z,21.35
2023-01-23T15:21:08.736Z,20.75
2023-01-23T15:24:17.766Z,20.90
2023-01-23T15:27:24.658Z,22.45
2023-01-23T15:30:35.699Z,23.20
2023-01-23T15:33:40.254Z,19.80
2023-01-23T15:36:59.110Z,21.65
2023-01-23T15:40:07.701Z,19.85
2023-01-23T15:43:18.930Z,24.02
2023-01-23T15:46:20.813Z,17.35
2023-01-23T15:49:26.261Z,26.55
2023-01-23T15:52:52.225Z,29.33
2023-01-23T15:55:55.153Z,27.13
2023-01-23T15:58:56.998Z,27.33
2023-01-23T16:01:58.846Z,24.85
2023-01-23T16:05:02.124Z,24.95
2023-01-23T16:08:06.122Z,22.85
2023-01-23T16:11:08.456Z,25.92
2023-01-23T16:14:15.770Z,24.80
2023-01-23T16:17:17.675Z,26.75
2023-01-23T16:20:28.849Z,26.88
2023-01-23T16:23:42.372Z,26.75
2023-01-23T16:26:50.566Z,24.55
2023-01-23T16:29:52.572Z,28.63
2023-01-23T16:32:56.251Z,28.83
2023-01-23T16:35:58.895Z,26.50
2023-01-23T16:39:00.776Z,30.27
2023-01-23T16:42:05.257Z,25.40
2023-01-23T16:45:23.245Z,31.63
2023-01-23T16:48:28.225Z,31.75
2023-01-23T16:51:30.796Z,30.65
2023-01-23T16:54:32.827Z,30.90
2023-01-23T16:57:34.933Z,35.40
2023-01-23T17:00:36.667Z,37.30
2023-01-23T17:03:46.331Z,32.72
2023-01-23T17:06:48.674Z,36.15
2023-01-23T17:09:51.705Z,36.03
2023-01-23T17:12:56.294Z,31.38
2023-01-23T17:15:59.200Z,31.55
2023-01-23T17:19:06.922Z,34.45
2023-01-23T17:22:19.011Z,36.42
2023-01-23T17:25:24.241Z,33.05
2023-01-23T17:28:26.150Z,30.92
2023-01-23T17:31:29.064Z,35.03
2023-01-23T17:34:45.108Z,33.95
2023-01-23T17:37:52.527Z,37.67
2023-01-23T17:40:54.147Z,34.47
2023-01-23T17:43:55.716Z,37.10
2023-01-23T17:46:57.610Z,36.08
2023-01-23T17:50:01.090Z,32.08
2023-01-23T17:53:04.060Z,38.83
2023-01-23T17:56:06.401Z,37.65
2023-01-23T17:59:08.064Z,34.08
2023-01-23T18:02:23.443Z,36.72
2023-01-23T18:05:25.899Z,40.33
2023-01-23T18:08:27.888Z,38.58
2023-01-23T18:11:32.576Z,40.42
2023-01-23T18:14:43.654Z,40.40
2023-01-23T18:17:56.225Z,36.10
2023-01-23T18:20:59.776Z,38.17
2023-01-23T18:24:01.667Z,44.00
2023-01-23T18:27:30.569Z,34.60
2023-01-23T18:30:59.298Z,35.53
2023-01-23T18:34:10.266Z,38.65
2023-01-23T18:37:34.825Z,35.80
2023-01-23T18:40:48.949Z,34.33
2023-01-23T18:43:57.331Z,34.13
2023-01-23T18:47:00.404Z,39.53
2023-01-23T18:50:02.653Z,29.55
2023-01-23T18:53:06.117Z,33.42
2023-01-23T18:56:25.033Z,35.15
2023-01-23T18:59:39.262Z,31.48
2023-01-23T19:02:51.516Z,31.00
2023-01-23T19:05:53.480Z,30.40
2023-01-23T19:08:56.710Z,31.50
2023-01-23T19:12:20.621Z,37.10
2023-01-23T19:15:39.104Z,34.95
2023-01-23T19:18:43.264Z,35.88
2023-01-23T19:21:46.892Z,33.35
2023-01-23T19:24:48.885Z,31.73
2023-01-23T19:27:52.901Z,36.50
2023-01-23T19:30:54.965Z,34.72
2023-01-23T19:33:57.303Z,34.55
2023-01-23T19:36:59.167Z,34.10
2023-01-23T19:40:01.830Z,37.10
2023-01-23T19:43:13.999Z,36.42
2023-01-23T19:46:16.363Z,36.88
2023-01-23T19:49:18.070Z,36.72
2023-01-23T19:52:19.839Z,33.45
2023-01-23T19:55:30.819Z,37.28
2023-01-23T20:01:45.530Z,30.60
2023-01-23T20:04:47.543Z,37.30
2023-01-23T20:07:50.090Z,36.08
2023-01-23T20:10:51.919Z,36.85
2023-01-23T20:13:53.808Z,38.90
2023-01-23T20:16:56.652Z,36.33
2023-01-23T20:19:58.299Z,37.53
2023-01-23T20:23:00.781Z,32.25
2023-01-23T20:26:02.809Z,37.75
2023-01-23T20:29:05.405Z,35.75
2023-01-23T20:32:07.525Z,36.28
2023-01-23T20:35:10.413Z,35.65
2023-01-23T20:38:12.921Z,35.28
2023-01-23T20:41:18.775Z,37.25
2023-01-23T20:44:20.368Z,37.50
2023-01-23T20:47:22.129Z,33.00
2023-01-23T20:50:24.350Z,30.55
2023-01-23T20:53:34.072Z,39.35
2023-01-23T20:56:36.375Z,35.58
2023-01-23T20:59:38.452Z,35.35
2023-01-23T21:02:40.129Z,37.97
2023-01-23T21:05:41.878Z,30.27
2023-01-23T21:08:44.230Z,33.72
2023-01-23T21:11:46.623Z,30.75
2023-01-23T21:14:48.432Z,31.40
2023-01-23T21:17:50.123Z,37.03
2023-01-23T21:20:53.186Z,33.65
2023-01-23T21:23:54.932Z,34.13
2023-01-23T21:26:56.920Z,33.83
2023-01-23T21:29:58.737Z,32.97
2023-01-23T21:33:00.380Z,33.25
2023-01-23T21:36:02.365Z,32.83
2023-01-23T21:39:05.006Z,35.85
2023-01-23T21:42:07.031Z,34.80
2023-01-23T21:45:09.340Z,36.67
2023-01-23T21:48:11.120Z,34.50
2023-01-23T21:51:14.452Z,32.38
2023-01-23T21:54:16.319Z,33.85
2023-01-23T21:57:18.159Z,34.83
2023-01-23T22:00:38.787Z,33.22
2023-01-23T22:03:40.353Z,30.92
2023-01-23T22:06:44.111Z,34.63
2023-01-23T22:09:46.039Z,29.67
2023-01-23T22:12:48.089Z,35.65
2023-01-23T22:15:51.241Z,30.10
2023-01-23T22:18:53.029Z,33.03
2023-01-23T22:21:55.407Z,31.83
2023-01-23T22:24:57.235Z,28.88
2023-01-23T22:27:58.901Z,30.42
2023-01-23T22:31:13.517Z,30.52
2023-01-23T22:34:15.373Z,32.17
2023-01-23T22:37:17.135Z,33.10
2023-01-23T22:40:18.670Z,29.52
2023-01-23T22:43:20.416Z,27.77
2023-01-23T22:46:23.753Z,31.10
2023-01-23T22:49:25.385Z,30.95
2023-01-23T22:52:27.081Z,35.47
2023-01-23T22:55:28.793Z,32.22
2023-01-23T22:58:30.572Z,34.22
2023-01-23T23:01:32.541Z,31.15
2023-01-23T23:04:34.458Z,27.23
2023-01-23T23:07:37.090Z,28.63
2023-01-23T23:10:39.122Z,31.73
2023-01-23T23:13:41.364Z,28.08
2023-01-23T23:16:43.053Z,34.92
2023-01-23T23:19:44.872Z,28.77
2023-01-23T23:22:46.741Z,32.28
2023-01-23T23:25:53.843Z,27.08
2023-01-23T23:28:55.985Z,27.25
2023-01-23T23:31:57.843Z,33.60
2023-01-23T23:34:59.678Z,26.98
2023-01-23T23:38:01.371Z,34.30
2023-01-23T23:41:06.179Z,26.52
2023-01-23T23:44:07.841Z,28.15
2023-01-23T23:47:09.429Z,27.42
2023-01-23T23:50:12.585Z,25.27
2023-01-23T23:53:14.484Z,28.27
2023-01-23T23:56:31.558Z,25.92
2023-01-23T23:59:33.160Z,28.42
